createdAt,value
2022-11-16T00:02:25.147Z,60
2022-11-16T00:05:29.363Z,60
2022-11-16T00:08:35.014Z,59
2022-11-16T00:11:40.002Z,58
2022-11-16T00:15:22.338Z,63
2022-11-16T00:18:27.684Z,58
2022-11-16T00:21:33.000Z,62
2022-11-16T00:24:38.259Z,53
2022-11-16T00:28:20.636Z,57
2022-11-16T00:31:25.956Z,60
2022-11-16T00:34:31.264Z,63
2022-11-16T00:37:36.584Z,65
2022-11-16T00:40:33.725Z,63
2022-11-16T00:43:39.033Z,61
2022-11-16T00:47:21.364Z,67
2022-11-16T00:50:26.707Z,64
2022-11-16T00:53:31.970Z,74
2022-11-16T00:56:37.317Z,74
2022-11-16T01:00:19.659Z,81
2022-11-16T01:03:24.991Z,74
2022-11-16T01:06:30.286Z,79
2022-11-16T01:09:35.636Z,79
2022-11-16T01:12:40.917Z,79
2022-11-16T01:16:23.265Z,81
2022-11-16T01:19:28.600Z,80
2022-11-16T01:22:33.953Z,77
2022-11-16T01:25:39.225Z,86
2022-11-16T01:29:22.290Z,81
2022-11-16T01:32:26.903Z,78
2022-11-16T01:35:32.222Z,76
2022-11-16T01:38:37.505Z,84
2022-11-16T01:41:34.626Z,87
2022-11-16T01:44:39.979Z,82
2022-11-16T01:48:22.400Z,86
2022-11-16T01:51:27.613Z,86
2022-11-16T01:54:32.934Z,80
2022-11-16T01:57:38.254Z,77
2022-11-16T02:01:20.700Z,85
2022-11-16T02:04:25.935Z,76
2022-11-16T02:07:31.303Z,77
2022-11-16T02:10:36.529Z,80
2022-11-16T02:13:41.888Z,80
2022-11-16T02:17:24.223Z,77
2022-11-16T02:20:29.520Z,73
2022-11-16T02:23:34.828Z,71
2022-11-16T02:26:40.161Z,73
2022-11-16T02:30:22.512Z,72
2022-11-16T02:33:27.846Z,66
2022-11-16T02:36:33.152Z,64
2022-11-16T02:39:38.437Z,63
2022-11-16T02:43:12.639Z,68
2022-11-16T02:45:40.845Z,67
2022-11-16T02:49:23.272Z,58
2022-11-16T02:52:28.572Z,58
2022-11-16T02:55:33.854Z,60
2022-11-16T02:58:39.196Z,61
2022-11-16T03:02:21.528Z,70
2022-11-16T03:05:26.829Z,62
2022-11-16T03:08:32.645Z,68
2022-11-16T03:11:37.505Z,63
2022-11-16T03:15:19.870Z,58
2022-11-16T03:18:25.269Z,72
2022-11-16T03:21:30.467Z,62
2022-11-16T03:24:35.767Z,54
2022-11-16T03:27:41.086Z,50
2022-11-16T03:31:23.465Z,51
2022-11-16T03:34:28.754Z,49
2022-11-16T03:37:34.115Z,46
2022-11-16T03:42:22.346Z,44
2022-11-16T03:45:27.767Z,44
2022-11-16T03:48:33.210Z,45
2022-11-16T03:51:38.305Z,38
2022-11-16T03:55:21.452Z,39
2022-11-16T03:58:26.015Z,37
2022-11-16T04:01:31.298Z,40
2022-11-16T04:04:36.583Z,33
2022-11-16T04:07:41.947Z,34
2022-11-16T04:11:24.293Z,33
2022-11-16T04:14:29.597Z,31
2022-11-16T04:17:34.904Z,30
2022-11-16T04:20:40.211Z,33
2022-11-16T04:24:22.599Z,37
2022-11-16T04:27:27.876Z,32
2022-11-16T04:30:33.198Z,32
2022-11-16T04:33:38.510Z,32
2022-11-16T04:37:20.883Z,31
2022-11-16T04:40:26.192Z,32
2022-11-16T04:43:23.302Z,32
2022-11-16T04:46:28.620Z,29
2022-11-16T04:49:33.913Z,31
2022-11-16T04:52:39.246Z,34
2022-11-16T04:56:21.605Z,37
2022-11-16T04:59:26.961Z,37
2022-11-16T05:02:32.213Z,42
2022-11-16T05:05:37.549Z,39
2022-11-16T05:08:42.832Z,37
2022-11-16T05:12:25.199Z,42
2022-11-16T05:15:30.524Z,39
2022-11-16T05:18:36.132Z,38
2022-11-16T05:21:41.172Z,44
2022-11-16T05:25:23.537Z,42
2022-11-16T05:28:28.824Z,39
2022-11-16T05:31:39.174Z,45
2022-11-16T05:34:39.466Z,43
2022-11-16T05:38:21.822Z,48
2022-11-16T05:41:18.952Z,47
2022-11-16T05:44:24.280Z,45
2022-11-16T05:47:29.531Z,42
2022-11-16T05:50:38.617Z,39
2022-11-16T05:53:40.185Z,45
2022-11-16T05:57:22.530Z,43
2022-11-16T06:00:27.851Z,37
2022-11-16T06:03:33.287Z,38
2022-11-16T06:06:38.494Z,44
2022-11-16T06:10:20.831Z,45
2022-11-16T06:13:27.183Z,45
2022-11-16T06:16:31.479Z,42
2022-11-16T06:19:36.774Z,44
2022-11-16T06:22:42.077Z,45
2022-11-16T06:26:24.422Z,46
2022-11-16T06:29:29.773Z,44
2022-11-16T06:32:35.065Z,42
2022-11-16T06:35:40.391Z,47
2022-11-16T06:39:22.743Z,50
2022-11-16T06:43:34.014Z,46
2022-11-16T06:46:39.334Z,52
2022-11-16T06:50:21.698Z,48
2022-11-16T06:53:29.342Z,47
2022-11-16T06:56:32.287Z,36
2022-11-16T06:59:37.608Z,43
2022-11-16T07:02:42.899Z,39
2022-11-16T07:06:25.283Z,34
2022-11-16T07:09:30.580Z,40
2022-11-16T07:12:35.934Z,41
2022-11-16T07:15:41.241Z,39
2022-11-16T07:19:23.560Z,28
2022-11-16T07:22:28.932Z,34
2022-11-16T07:25:34.213Z,29
2022-11-16T07:28:43.461Z,14
2022-11-16T07:32:21.938Z,15
2022-11-16T07:35:27.180Z,14
2022-11-16T07:38:32.930Z,13
2022-11-16T07:42:35.585Z,15
2022-11-16T07:45:03.803Z,11
2022-11-16T07:47:32.058Z,14
2022-11-16T07:54:19.754Z,12
2022-11-16T07:57:25.057Z,12
2022-11-16T08:04:12.956Z,22
2022-11-16T08:07:55.107Z,14
2022-11-16T08:10:23.428Z,14
2022-11-16T08:13:28.645Z,16
2022-11-16T08:18:25.170Z,12
2022-11-16T08:22:44.577Z,9
2022-11-16T08:28:55.206Z,14
2022-11-16T08:32:00.505Z,13
2022-11-16T08:35:05.801Z,16
2022-11-16T08:38:48.242Z,17
2022-11-16T08:42:30.536Z,12
2022-11-16T08:45:35.874Z,13
2022-11-16T08:49:55.338Z,11
2022-11-16T08:52:23.557Z,16
2022-11-16T08:54:51.799Z,16
2022-11-16T08:57:20.087Z,13
2022-11-16T08:59:48.292Z,12
2022-11-16T09:03:22.486Z,16
2022-11-16T09:06:27.819Z,12
2022-11-16T09:09:33.099Z,14
2022-11-16T09:12:38.400Z,22
2022-11-16T09:15:43.672Z,13
2022-11-16T09:19:26.092Z,13
2022-11-16T09:22:31.388Z,16
2022-11-16T09:25:36.703Z,15
2022-11-16T09:28:42.030Z,12
2022-11-16T09:32:24.409Z,12
2022-11-16T09:37:57.927Z,13
2022-11-16T09:40:26.188Z,23
2022-11-16T09:42:54.438Z,13
2022-11-16T09:45:59.758Z,11
2022-11-16T09:49:10.500Z,16
2022-11-16T09:51:33.277Z,17
2022-11-16T09:54:38.602Z,14
2022-11-16T09:58:20.962Z,9
2022-11-16T10:01:26.331Z,11
2022-11-16T10:05:45.715Z,11
2022-11-16T10:08:13.971Z,9
2022-11-16T10:11:56.384Z,10
2022-11-16T10:15:30.488Z,9
2022-11-16T10:18:35.864Z,9
2022-11-16T10:21:41.130Z,10
2022-11-16T10:24:09.387Z,11
2022-11-16T10:27:51.761Z,7
2022-11-16T10:30:20.115Z,7
2022-11-16T10:32:48.254Z,13
2022-11-16T10:36:30.644Z,16
2022-11-16T10:46:23.662Z,13
2022-11-16T10:59:59.018Z,15
2022-11-16T11:03:04.310Z,10
2022-11-16T11:07:07.369Z,12
2022-11-16T11:10:49.705Z,9
2022-11-16T11:14:32.121Z,10
2022-11-16T11:17:37.379Z,11
2022-11-16T11:20:44.950Z,7
2022-11-16T11:24:43.194Z,7
2022-11-16T11:27:30.352Z,14
2022-11-16T11:30:35.671Z,10
2022-11-16T11:36:09.241Z,12
2022-11-16T11:39:51.625Z,8
2022-11-16T11:42:19.862Z,9
2022-11-16T11:44:48.101Z,8
2022-11-16T11:47:50.732Z,10
2022-11-16T11:49:44.605Z,9
2022-11-16T11:55:55.230Z,9
2022-11-16T11:59:37.571Z,18
2022-11-16T12:03:20.009Z,10
2022-11-16T12:06:17.075Z,8
2022-11-16T12:09:22.363Z,13
2022-11-16T12:14:55.954Z,9
2022-11-16T12:17:24.201Z,9
2022-11-16T12:19:52.433Z,9
2022-11-16T12:22:20.682Z,10
2022-11-16T12:25:26.009Z,12
2022-11-16T12:28:31.325Z,12
2022-11-16T12:31:36.651Z,10
2022-11-16T12:35:19.015Z,12
2022-11-16T12:37:47.314Z,11
2022-11-16T12:40:15.503Z,7
2022-11-16T12:43:20.772Z,9
2022-11-16T12:46:26.131Z,9
2022-11-16T12:49:31.410Z,8
2022-11-16T12:52:36.749Z,8
2022-11-16T12:55:42.036Z,10
2022-11-16T12:59:24.382Z,12
2022-11-16T13:04:20.884Z,6
2022-11-16T13:08:32.135Z,9
2022-11-16T13:12:55.678Z,9
2022-11-16T13:15:19.820Z,9
2022-11-16T13:17:48.087Z,9
2022-11-16T13:20:53.359Z,10
2022-11-16T13:24:35.769Z,10
2022-11-16T13:27:03.992Z,8
2022-11-16T13:30:46.360Z,8
2022-11-16T13:33:14.625Z,8
2022-11-16T13:35:42.841Z,10
2022-11-16T13:39:25.223Z,8
2022-11-16T13:42:30.541Z,14
2022-11-16T13:45:35.914Z,8
2022-11-16T13:48:41.175Z,9
2022-11-16T13:52:24.959Z,13
2022-11-16T13:55:28.849Z,16
2022-11-16T13:58:34.149Z,11
2022-11-16T14:03:30.737Z,11
2022-11-16T14:07:41.879Z,11
2022-11-16T14:12:38.429Z,9
2022-11-16T14:15:06.648Z,11
2022-11-16T14:18:49.042Z,12
2022-11-16T14:21:54.319Z,9
2022-11-16T14:24:59.638Z,9
2022-11-16T14:27:30.720Z,9
2022-11-16T14:30:33.153Z,7
2022-11-16T14:33:38.714Z,12
2022-11-16T14:37:20.849Z,8
2022-11-16T14:40:26.174Z,9
2022-11-16T14:43:31.608Z,13
2022-11-16T14:46:36.814Z,11
2022-11-16T14:49:42.113Z,15
2022-11-16T14:53:24.461Z,8
2022-11-16T14:56:29.790Z,10
2022-11-16T14:59:35.102Z,10
2022-11-16T15:02:40.485Z,9
2022-11-16T15:07:28.723Z,12
2022-11-16T15:12:25.230Z,12
2022-11-16T15:17:21.716Z,13
2022-11-16T15:20:27.024Z,12
2022-11-16T15:23:32.620Z,15
2022-11-16T15:26:37.648Z,14
2022-11-16T15:31:34.150Z,20
2022-11-16T15:34:39.453Z,15
2022-11-16T15:38:21.840Z,15
2022-11-16T15:41:27.103Z,16
2022-11-16T15:44:32.450Z,17
2022-11-16T15:47:37.743Z,14
2022-11-16T15:51:20.163Z,21
2022-11-16T15:54:25.460Z,16
2022-11-16T15:57:30.737Z,16
2022-11-16T16:00:36.112Z,16
2022-11-16T16:03:41.347Z,18
2022-11-16T16:08:29.698Z,20
2022-11-16T16:11:34.970Z,24
2022-11-16T16:14:40.259Z,24
2022-11-16T16:18:22.644Z,27
2022-11-16T16:21:27.954Z,27
2022-11-16T16:24:33.250Z,24
2022-11-16T16:27:38.558Z,27
2022-11-16T16:31:20.938Z,28
2022-11-16T16:35:40.371Z,28
2022-11-16T16:39:22.739Z,29
2022-11-16T16:42:28.079Z,28
2022-11-16T16:45:33.346Z,39
2022-11-16T16:48:43.344Z,35
2022-11-16T16:52:21.061Z,35
2022-11-16T16:55:26.357Z,32
2022-11-16T16:58:31.676Z,35
2022-11-16T17:02:51.126Z,51
2022-11-16T17:05:19.464Z,58
2022-11-16T17:08:08.263Z,64
2022-11-16T17:11:50.659Z,69
2022-11-16T17:15:33.062Z,60
2022-11-16T17:18:38.325Z,56
2022-11-16T17:22:20.685Z,53
2022-11-16T17:26:03.072Z,47
2022-11-16T17:29:45.419Z,58
2022-11-16T17:32:13.707Z,49
2022-11-16T17:35:56.077Z,42
2022-11-16T17:38:24.323Z,37
2022-11-16T17:41:29.615Z,44
2022-11-16T17:44:34.926Z,49
2022-11-16T17:47:40.208Z,47
2022-11-16T17:51:22.593Z,70
2022-11-16T17:54:27.926Z,57
2022-11-16T17:57:33.249Z,57
2022-11-16T18:00:38.606Z,50
2022-11-16T18:04:20.875Z,51
2022-11-16T18:08:36.265Z,54
2022-11-16T18:11:41.551Z,53
2022-11-16T18:15:27.840Z,58
2022-11-16T18:18:29.232Z,58
2022-11-16T18:21:34.574Z,50
2022-11-16T18:24:39.862Z,59
2022-11-16T18:28:22.219Z,54
2022-11-16T18:31:27.555Z,59
2022-11-16T18:44:05.676Z,54
2022-11-16T18:50:26.932Z,65
2022-11-16T19:16:29.533Z,50
2022-11-16T19:19:05.911Z,55
2022-11-16T19:21:25.978Z,43
2022-11-16T19:23:54.265Z,51
2022-11-16T19:26:22.496Z,55
2022-11-16T19:28:50.795Z,57
2022-11-16T19:32:33.202Z,56
2022-11-16T19:35:01.446Z,58
2022-11-16T19:37:29.736Z,59
2022-11-16T19:39:57.996Z,59
2022-11-16T19:42:26.259Z,60
2022-11-16T19:45:02.711Z,58
2022-11-16T19:47:30.969Z,58
2022-11-16T19:49:59.255Z,54
2022-11-16T19:52:27.526Z,52
2022-11-16T19:55:03.970Z,48
2022-11-16T19:57:40.420Z,49
2022-11-16T20:01:22.900Z,54
2022-11-16T20:03:51.092Z,44
2022-11-16T20:07:33.532Z,55
2022-11-16T20:10:01.803Z,47
2022-11-16T20:12:30.039Z,47
2022-11-16T20:14:58.371Z,45
2022-11-16T20:17:34.736Z,48
2022-11-16T20:22:23.082Z,47
2022-11-16T20:24:59.547Z,42
2022-11-16T20:27:27.809Z,40
2022-11-16T20:29:56.106Z,39
2022-11-16T20:32:25.422Z,38
2022-11-16T20:34:52.628Z,38
2022-11-16T20:37:20.865Z,34
2022-11-16T20:39:49.154Z,36
2022-11-16T20:43:31.622Z,29
2022-11-16T20:45:59.818Z,31
2022-11-16T20:48:28.109Z,26
2022-11-16T20:53:33.104Z,26
2022-11-16T20:56:09.289Z,21
2022-11-16T20:58:37.599Z,22
2022-11-16T21:02:28.123Z,23
2022-11-16T21:05:00.173Z,22
2022-11-16T21:07:24.714Z,27
2022-11-16T21:09:52.924Z,23
2022-11-16T21:12:21.190Z,25
2022-11-16T21:14:49.452Z,23
2022-11-16T21:18:31.837Z,23
2022-11-16T21:48:02.941Z,18
2022-11-16T21:51:53.471Z,22
2022-11-16T21:54:21.723Z,26
2022-11-16T21:56:49.990Z,25
2022-11-16T22:00:32.382Z,24
2022-11-16T22:03:00.653Z,22
2022-11-16T22:05:28.962Z,22
2022-11-16T22:07:57.176Z,23
2022-11-16T22:11:39.628Z,22
2022-11-16T22:57:30.781Z,20
2022-11-16T23:01:21.313Z,24
2022-11-16T23:03:49.642Z,23
2022-11-16T23:08:46.327Z,23
2022-11-16T23:12:28.505Z,19
2022-11-16T23:14:56.795Z,19
2022-11-16T23:17:25.031Z,19
2022-11-16T23:22:21.583Z,24
2022-11-16T23:24:49.952Z,25
2022-11-16T23:28:40.406Z,21
2022-11-16T23:32:22.940Z,23
2022-11-16T23:34:59.278Z,25
2022-11-16T23:37:27.591Z,25
2022-11-16T23:39:55.817Z,24
2022-11-16T23:42:24.099Z,24
2022-11-16T23:44:52.345Z,26
2022-11-16T23:47:20.595Z,23
2022-11-16T23:51:03.015Z,22
2022-11-16T23:53:31.283Z,20
2022-11-16T23:58:19.637Z,21
